Fairmount, Indiana
Current Conditions -  °F | °C
As of 1:55 PM on Monday 20 Oct 2014 (Local Time) from KMZZ Reporting Station
Overcast Overcast  
Wind Chill: 56°   Ceiling: 1600
Heat Index: 56°   Visibility: 7mi
Dew Point: 49°   Wind: 14mph
Humidity: 77%   Direction: 240°WSW
Pressure: 29.84"   Gusts: NA
Location:  40.42°N, 85.65°W
Report Text: KMZZ 201755Z AUTO 24012KT 7SM OVC016 14/10 A2984 RMK AO2 60002 T01360096 10324 20005
Loading
Personal Weather Stations






























Interactive Weather Map
Tropical Storm Tracking
New forecast layout! Learn more

10-Day Weather Forecast

Advertisements
Track Severe Weather on mobile